SHT6L EGLL-EGPF
Flight info
| Callsign | SHT6L |
|---|---|
| Flight time | 0h 56m |
| Altitude | 32000 |
| Route | DCT ULTIB T420 TNT UN57 POL UN601 RIBEL RIBEL1G |
| Aircraft | A320/M-SDE3FGIJ1KRWXY/SB1 |
Departure
| Time | 2026-05-05 07:50 |
|---|---|
| Airport | London Heathrow Airport (EGLL) |
Arrival
| Time | 2026-05-05 08:46 |
|---|---|
| Airport | Glasgow Airport (EGPF) |
| Time | Latitude | Longitude | Altitude | Speed | Heading |
|---|---|---|---|---|---|
| 2026-05-05 06:59 | 51.47233 | -0.48585 | 91 ft | 0 kts | 270° |
| 2026-05-05 07:41 | 51.47233 | -0.48574 | 90 ft | 4 kts | 270° |
| 2026-05-05 07:42 | 51.47233 | -0.48531 | 89 ft | 4 kts | 270° |
| 2026-05-05 07:42 | 51.47234 | -0.48497 | 89 ft | 4 kts | 247° |
| 2026-05-05 07:42 | 51.47249 | -0.48474 | 87 ft | 4 kts | 184° |
| 2026-05-05 07:42 | 51.47271 | -0.48473 | 86 ft | 1 kts | 180° |
| 2026-05-05 07:43 | 51.47272 | -0.48473 | 86 ft | 0 kts | 180° |
| 2026-05-05 07:45 | 51.47269 | -0.48473 | 86 ft | 2 kts | 180° |
| 2026-05-05 07:45 | 51.47250 | -0.48473 | 87 ft | 4 kts | 180° |
| 2026-05-05 07:45 | 51.47214 | -0.48473 | 87 ft | 6 kts | 180° |
| 2026-05-05 07:46 | 51.47161 | -0.48472 | 86 ft | 9 kts | 180° |
| 2026-05-05 07:46 | 51.47093 | -0.48472 | 87 ft | 11 kts | 180° |
| 2026-05-05 07:46 | 51.47010 | -0.48471 | 88 ft | 13 kts | 179° |
| 2026-05-05 07:46 | 51.46912 | -0.48470 | 89 ft | 13 kts | 179° |
| 2026-05-05 07:47 | 51.46815 | -0.48469 | 86 ft | 14 kts | 180° |
| 2026-05-05 07:47 | 51.46733 | -0.48468 | 86 ft | 9 kts | 179° |
| 2026-05-05 07:47 | 51.46670 | -0.48479 | 86 ft | 8 kts | 207° |
| 2026-05-05 07:47 | 51.46652 | -0.48551 | 87 ft | 8 kts | 268° |
| 2026-05-05 07:48 | 51.46651 | -0.48638 | 86 ft | 9 kts | 270° |
| 2026-05-05 07:48 | 51.46641 | -0.48733 | 89 ft | 6 kts | 237° |
| 2026-05-05 07:48 | 51.46623 | -0.48751 | 90 ft | 2 kts | 207° |
| 2026-05-05 07:48 | 51.46614 | -0.48758 | 91 ft | 2 kts | 203° |
| 2026-05-05 07:49 | 51.46591 | -0.48772 | 87 ft | 6 kts | 201° |
| 2026-05-05 07:49 | 51.46539 | -0.48790 | 86 ft | 10 kts | 176° |
| 2026-05-05 07:49 | 51.46481 | -0.48707 | 89 ft | 13 kts | 105° |
| 2026-05-05 07:49 | 51.46478 | -0.48511 | 86 ft | 31 kts | 90° |
| 2026-05-05 07:50 | 51.46482 | -0.47784 | 87 ft | 97 kts | 90° |
| 2026-05-05 07:50 | 51.46486 | -0.46429 | 92 ft | 143 kts | 89° |
| 2026-05-05 07:50 | 51.46487 | -0.44659 | 317 ft | 161 kts | 88° |
| 2026-05-05 07:50 | 51.46484 | -0.42914 | 1018 ft | 156 kts | 86° |
| 2026-05-05 07:51 | 51.46694 | -0.41213 | 1489 ft | 161 kts | 60° |
| 2026-05-05 07:51 | 51.47402 | -0.39730 | 1747 ft | 182 kts | 48° |
| 2026-05-05 07:51 | 51.48285 | -0.38076 | 2034 ft | 207 kts | 49° |
| 2026-05-05 07:51 | 51.49270 | -0.36204 | 2442 ft | 232 kts | 48° |
| 2026-05-05 07:52 | 51.50337 | -0.34164 | 3129 ft | 243 kts | 49° |
| 2026-05-05 07:52 | 51.51435 | -0.32056 | 3987 ft | 249 kts | 49° |
| 2026-05-05 07:52 | 51.52385 | -0.29698 | 4811 ft | 257 kts | 66° |
| 2026-05-05 07:52 | 51.52982 | -0.26953 | 5649 ft | 263 kts | 73° |
| 2026-05-05 07:53 | 51.53546 | -0.24134 | 6452 ft | 268 kts | 59° |
| 2026-05-05 07:53 | 51.54352 | -0.22585 | 6923 ft | 270 kts | 35° |
| 2026-05-05 07:53 | 51.56086 | -0.21496 | 7671 ft | 272 kts | 4° |
| 2026-05-05 07:53 | 51.57980 | -0.21672 | 8488 ft | 275 kts | 349° |
| 2026-05-05 07:54 | 51.59831 | -0.22356 | 9253 ft | 279 kts | 344° |
| 2026-05-05 07:54 | 51.61674 | -0.23385 | 10007 ft | 283 kts | 332° |
| 2026-05-05 07:54 | 51.63328 | -0.25158 | 10627 ft | 291 kts | 323° |
| 2026-05-05 07:54 | 51.65058 | -0.27086 | 10828 ft | 314 kts | 327° |
| 2026-05-05 07:55 | 51.66977 | -0.29013 | 11037 ft | 334 kts | 329° |
| 2026-05-05 07:55 | 51.69005 | -0.30940 | 11591 ft | 341 kts | 330° |
| 2026-05-05 07:55 | 51.71071 | -0.32868 | 12202 ft | 346 kts | 330° |
| 2026-05-05 07:55 | 51.73167 | -0.34828 | 12838 ft | 350 kts | 330° |
| 2026-05-05 07:56 | 51.75285 | -0.36831 | 13472 ft | 355 kts | 329° |
| 2026-05-05 07:56 | 51.77419 | -0.38879 | 14077 ft | 359 kts | 329° |
| 2026-05-05 07:56 | 51.79572 | -0.40963 | 14651 ft | 363 kts | 329° |
| 2026-05-05 07:56 | 51.81744 | -0.43074 | 15218 ft | 367 kts | 328° |
| 2026-05-05 07:57 | 51.83944 | -0.45211 | 15784 ft | 370 kts | 328° |
| 2026-05-05 07:57 | 51.86162 | -0.47367 | 16328 ft | 374 kts | 328° |
| 2026-05-05 07:57 | 51.88402 | -0.49548 | 16896 ft | 378 kts | 328° |
| 2026-05-05 07:57 | 51.90669 | -0.51759 | 17405 ft | 383 kts | 328° |
| 2026-05-05 07:58 | 51.92964 | -0.53999 | 17968 ft | 387 kts | 328° |
| 2026-05-05 07:58 | 51.95288 | -0.56269 | 18502 ft | 391 kts | 328° |
| 2026-05-05 07:58 | 51.97631 | -0.58555 | 19017 ft | 394 kts | 328° |
| 2026-05-05 07:58 | 51.99986 | -0.60858 | 19534 ft | 397 kts | 328° |
| 2026-05-05 07:59 | 52.02358 | -0.63183 | 20044 ft | 399 kts | 328° |
| 2026-05-05 07:59 | 52.04744 | -0.65524 | 20549 ft | 402 kts | 327° |
| 2026-05-05 07:59 | 52.07145 | -0.67882 | 21053 ft | 404 kts | 327° |
| 2026-05-05 07:59 | 52.09563 | -0.70257 | 21523 ft | 407 kts | 327° |
| 2026-05-05 08:00 | 52.11998 | -0.72652 | 21978 ft | 410 kts | 327° |
| 2026-05-05 08:00 | 52.14449 | -0.75064 | 22415 ft | 413 kts | 327° |
| 2026-05-05 08:00 | 52.16915 | -0.77493 | 22858 ft | 416 kts | 327° |
| 2026-05-05 08:00 | 52.19399 | -0.79950 | 23307 ft | 419 kts | 327° |
| 2026-05-05 08:01 | 52.21897 | -0.82424 | 23721 ft | 422 kts | 327° |
| 2026-05-05 08:01 | 52.24415 | -0.84918 | 24104 ft | 424 kts | 327° |
| 2026-05-05 08:01 | 52.26943 | -0.87426 | 24493 ft | 426 kts | 326° |
| 2026-05-05 08:01 | 52.29480 | -0.89945 | 24919 ft | 427 kts | 326° |
| 2026-05-05 08:02 | 52.31982 | -0.92432 | 25376 ft | 426 kts | 326° |
| 2026-05-05 08:02 | 52.34519 | -0.94957 | 25765 ft | 428 kts | 326° |
| 2026-05-05 08:02 | 52.37064 | -0.97495 | 26128 ft | 430 kts | 326° |
| 2026-05-05 08:02 | 52.39622 | -1.00053 | 26489 ft | 432 kts | 327° |
| 2026-05-05 08:03 | 52.42197 | -1.02629 | 26828 ft | 435 kts | 327° |
| 2026-05-05 08:03 | 52.44786 | -1.05221 | 27189 ft | 437 kts | 327° |
| 2026-05-05 08:03 | 52.47387 | -1.07832 | 27552 ft | 439 kts | 327° |
| 2026-05-05 08:03 | 52.50002 | -1.10457 | 27921 ft | 441 kts | 327° |
| 2026-05-05 08:04 | 52.52622 | -1.13097 | 28268 ft | 444 kts | 327° |
| 2026-05-05 08:04 | 52.55262 | -1.15764 | 28618 ft | 446 kts | 327° |
| 2026-05-05 08:04 | 52.57910 | -1.18441 | 28954 ft | 448 kts | 327° |
| 2026-05-05 08:04 | 52.60572 | -1.21131 | 29399 ft | 448 kts | 327° |
| 2026-05-05 08:05 | 52.63223 | -1.23805 | 29890 ft | 446 kts | 327° |
| 2026-05-05 08:05 | 52.65865 | -1.26475 | 30314 ft | 446 kts | 327° |
| 2026-05-05 08:05 | 52.68503 | -1.29149 | 30729 ft | 445 kts | 327° |
| 2026-05-05 08:05 | 52.71137 | -1.31824 | 31126 ft | 445 kts | 328° |
| 2026-05-05 08:06 | 52.73770 | -1.34499 | 31517 ft | 445 kts | 328° |
| 2026-05-05 08:06 | 52.76411 | -1.37184 | 31873 ft | 445 kts | 329° |
| 2026-05-05 08:06 | 52.79039 | -1.39862 | 32011 ft | 444 kts | 329° |
| 2026-05-05 08:06 | 52.81668 | -1.42547 | 32031 ft | 444 kts | 329° |
| 2026-05-05 08:07 | 52.86924 | -1.47931 | 32030 ft | 444 kts | 329° |
| 2026-05-05 08:07 | 52.92171 | -1.53329 | 32032 ft | 444 kts | 328° |
| 2026-05-05 08:08 | 52.97376 | -1.58704 | 32033 ft | 444 kts | 329° |
| 2026-05-05 08:08 | 53.02617 | -1.64119 | 32035 ft | 443 kts | 329° |
| 2026-05-05 08:09 | 53.08109 | -1.68690 | 32041 ft | 442 kts | 340° |
| 2026-05-05 08:09 | 53.13874 | -1.72231 | 32043 ft | 442 kts | 340° |
| 2026-05-05 08:10 | 53.19638 | -1.75807 | 32044 ft | 442 kts | 340° |
| 2026-05-05 08:10 | 53.25397 | -1.79398 | 32044 ft | 442 kts | 339° |
| 2026-05-05 08:11 | 53.31150 | -1.82991 | 32045 ft | 441 kts | 339° |
| 2026-05-05 08:11 | 53.36906 | -1.86599 | 32048 ft | 441 kts | 339° |
| 2026-05-05 08:12 | 53.42657 | -1.90210 | 32054 ft | 441 kts | 339° |
| 2026-05-05 08:12 | 53.48405 | -1.93831 | 32047 ft | 441 kts | 339° |
| 2026-05-05 08:13 | 53.54154 | -1.97454 | 32046 ft | 441 kts | 339° |
| 2026-05-05 08:13 | 53.59897 | -2.01091 | 32045 ft | 441 kts | 339° |
| 2026-05-05 08:14 | 53.65637 | -2.04745 | 32044 ft | 441 kts | 339° |
| 2026-05-05 08:14 | 53.71368 | -2.08404 | 32048 ft | 441 kts | 339° |
| 2026-05-05 08:15 | 53.77091 | -2.12098 | 32059 ft | 439 kts | 337° |
| 2026-05-05 08:15 | 53.82718 | -2.15934 | 32059 ft | 438 kts | 336° |
| 2026-05-05 08:16 | 53.88365 | -2.19855 | 32057 ft | 438 kts | 336° |
| 2026-05-05 08:16 | 53.94001 | -2.23744 | 32052 ft | 437 kts | 337° |
| 2026-05-05 08:17 | 53.99642 | -2.27623 | 32064 ft | 437 kts | 336° |
| 2026-05-05 08:17 | 54.05069 | -2.32182 | 32061 ft | 435 kts | 329° |
| 2026-05-05 08:18 | 54.10364 | -2.37134 | 32060 ft | 434 kts | 329° |
| 2026-05-05 08:18 | 54.15663 | -2.42111 | 32057 ft | 434 kts | 329° |
| 2026-05-05 08:19 | 54.20953 | -2.47098 | 32054 ft | 434 kts | 329° |
| 2026-05-05 08:19 | 54.26234 | -2.52084 | 32069 ft | 433 kts | 329° |
| 2026-05-05 08:20 | 54.31473 | -2.57041 | 32068 ft | 432 kts | 328° |
| 2026-05-05 08:20 | 54.36724 | -2.62042 | 32065 ft | 431 kts | 328° |
| 2026-05-05 08:21 | 54.41978 | -2.67045 | 32055 ft | 431 kts | 328° |
| 2026-05-05 08:21 | 54.47224 | -2.72051 | 32058 ft | 431 kts | 328° |
| 2026-05-05 08:22 | 54.52464 | -2.77074 | 32064 ft | 431 kts | 328° |
| 2026-05-05 08:22 | 54.55083 | -2.79592 | 31845 ft | 430 kts | 328° |
| 2026-05-05 08:22 | 54.57691 | -2.82100 | 31263 ft | 428 kts | 328° |
| 2026-05-05 08:23 | 54.60282 | -2.84591 | 30725 ft | 424 kts | 328° |
| 2026-05-05 08:23 | 54.62822 | -2.87036 | 30200 ft | 421 kts | 328° |
| 2026-05-05 08:23 | 54.65369 | -2.89499 | 29611 ft | 418 kts | 327° |
| 2026-05-05 08:23 | 54.67889 | -2.91943 | 29090 ft | 413 kts | 327° |
| 2026-05-05 08:24 | 54.70384 | -2.94361 | 28572 ft | 409 kts | 327° |
| 2026-05-05 08:24 | 54.72853 | -2.96756 | 28055 ft | 405 kts | 327° |
| 2026-05-05 08:24 | 54.75333 | -2.99163 | 27519 ft | 402 kts | 327° |
| 2026-05-05 08:24 | 54.77726 | -3.01493 | 27014 ft | 398 kts | 327° |
| 2026-05-05 08:25 | 54.80128 | -3.03832 | 26512 ft | 394 kts | 327° |
| 2026-05-05 08:25 | 54.82507 | -3.06155 | 26016 ft | 391 kts | 327° |
| 2026-05-05 08:25 | 54.84874 | -3.08471 | 25641 ft | 391 kts | 327° |
| 2026-05-05 08:25 | 54.87252 | -3.10801 | 25264 ft | 393 kts | 327° |
| 2026-05-05 08:26 | 54.89635 | -3.13140 | 24872 ft | 393 kts | 327° |
| 2026-05-05 08:26 | 54.92013 | -3.15472 | 24497 ft | 391 kts | 327° |
| 2026-05-05 08:26 | 54.94374 | -3.17791 | 24117 ft | 389 kts | 327° |
| 2026-05-05 08:26 | 54.96723 | -3.20103 | 23760 ft | 387 kts | 327° |
| 2026-05-05 08:27 | 54.99048 | -3.22394 | 23335 ft | 383 kts | 327° |
| 2026-05-05 08:27 | 55.01362 | -3.24674 | 22959 ft | 380 kts | 327° |
| 2026-05-05 08:27 | 55.03653 | -3.26938 | 22588 ft | 378 kts | 327° |
| 2026-05-05 08:27 | 55.05933 | -3.29194 | 22215 ft | 376 kts | 327° |
| 2026-05-05 08:28 | 55.08204 | -3.31440 | 21868 ft | 374 kts | 327° |
| 2026-05-05 08:28 | 55.10463 | -3.33682 | 21496 ft | 372 kts | 327° |
| 2026-05-05 08:28 | 55.12710 | -3.35911 | 21127 ft | 370 kts | 327° |
| 2026-05-05 08:28 | 55.14942 | -3.38128 | 20780 ft | 368 kts | 327° |
| 2026-05-05 08:29 | 55.17163 | -3.40341 | 20420 ft | 366 kts | 327° |
| 2026-05-05 08:29 | 55.19365 | -3.42545 | 20057 ft | 364 kts | 327° |
| 2026-05-05 08:29 | 55.21570 | -3.44755 | 19429 ft | 367 kts | 327° |
| 2026-05-05 08:30 | 55.26057 | -3.49243 | 17987 ft | 374 kts | 327° |
| 2026-05-05 08:30 | 55.28309 | -3.51497 | 17435 ft | 369 kts | 327° |
| 2026-05-05 08:30 | 55.30536 | -3.53723 | 16694 ft | 367 kts | 327° |
| 2026-05-05 08:30 | 55.32732 | -3.55925 | 16042 ft | 361 kts | 327° |
| 2026-05-05 08:31 | 55.34906 | -3.58112 | 15406 ft | 356 kts | 328° |
| 2026-05-05 08:31 | 55.37051 | -3.60272 | 14691 ft | 353 kts | 328° |
| 2026-05-05 08:31 | 55.39162 | -3.62401 | 13976 ft | 349 kts | 328° |
| 2026-05-05 08:31 | 55.41251 | -3.64515 | 13275 ft | 343 kts | 328° |
| 2026-05-05 08:32 | 55.43299 | -3.66587 | 12629 ft | 336 kts | 328° |
| 2026-05-05 08:32 | 55.45309 | -3.68614 | 12006 ft | 329 kts | 328° |
| 2026-05-05 08:32 | 55.47266 | -3.70593 | 11769 ft | 318 kts | 328° |
| 2026-05-05 08:32 | 55.49120 | -3.72472 | 11639 ft | 306 kts | 328° |
| 2026-05-05 08:33 | 55.50931 | -3.74311 | 11509 ft | 295 kts | 328° |
| 2026-05-05 08:33 | 55.52678 | -3.76090 | 11369 ft | 285 kts | 328° |
| 2026-05-05 08:33 | 55.54391 | -3.77831 | 10992 ft | 285 kts | 328° |
| 2026-05-05 08:33 | 55.56099 | -3.79571 | 10735 ft | 281 kts | 328° |
| 2026-05-05 08:34 | 55.57790 | -3.81294 | 10396 ft | 280 kts | 328° |
| 2026-05-05 08:34 | 55.59476 | -3.83021 | 10006 ft | 278 kts | 328° |
| 2026-05-05 08:34 | 55.61142 | -3.84730 | 9464 ft | 277 kts | 329° |
| 2026-05-05 08:34 | 55.62802 | -3.86436 | 8920 ft | 275 kts | 329° |
| 2026-05-05 08:35 | 55.64446 | -3.88124 | 8370 ft | 273 kts | 329° |
| 2026-05-05 08:35 | 55.66080 | -3.89799 | 7922 ft | 267 kts | 329° |
| 2026-05-05 08:35 | 55.67267 | -3.91020 | 7757 ft | 255 kts | 329° |
| 2026-05-05 08:35 | 55.68776 | -3.92579 | 7318 ft | 248 kts | 328° |
| 2026-05-05 08:36 | 55.70336 | -3.93911 | 7055 ft | 255 kts | 344° |
| 2026-05-05 08:36 | 55.72098 | -3.94577 | 7057 ft | 258 kts | 349° |
| 2026-05-05 08:36 | 55.73829 | -3.95102 | 7031 ft | 247 kts | 349° |
| 2026-05-05 08:36 | 55.75503 | -3.95591 | 6841 ft | 242 kts | 349° |
| 2026-05-05 08:37 | 55.77164 | -3.96084 | 6547 ft | 242 kts | 349° |
| 2026-05-05 08:37 | 55.78817 | -3.96580 | 6273 ft | 240 kts | 349° |
| 2026-05-05 08:37 | 55.80458 | -3.97075 | 5996 ft | 238 kts | 349° |
| 2026-05-05 08:37 | 55.82088 | -3.97577 | 5687 ft | 238 kts | 349° |
| 2026-05-05 08:38 | 55.83168 | -3.97915 | 5473 ft | 238 kts | 349° |
| 2026-05-05 08:38 | 55.84805 | -3.98442 | 5149 ft | 239 kts | 349° |
| 2026-05-05 08:38 | 55.86431 | -3.98975 | 5017 ft | 237 kts | 349° |
| 2026-05-05 08:38 | 55.88054 | -3.99514 | 5013 ft | 238 kts | 349° |
| 2026-05-05 08:39 | 55.89681 | -4.00056 | 5016 ft | 239 kts | 349° |
| 2026-05-05 08:39 | 55.91315 | -4.00600 | 4949 ft | 238 kts | 349° |
| 2026-05-05 08:39 | 55.92945 | -4.01148 | 4644 ft | 238 kts | 349° |
| 2026-05-05 08:39 | 55.94559 | -4.01701 | 4377 ft | 235 kts | 349° |
| 2026-05-05 08:40 | 55.96172 | -4.02267 | 3901 ft | 238 kts | 349° |
| 2026-05-05 08:40 | 55.97782 | -4.02844 | 3605 ft | 233 kts | 349° |
| 2026-05-05 08:40 | 55.99349 | -4.03419 | 3461 ft | 226 kts | 349° |
| 2026-05-05 08:40 | 56.00860 | -4.03977 | 3326 ft | 218 kts | 349° |
| 2026-05-05 08:41 | 56.02290 | -4.04701 | 3191 ft | 211 kts | 334° |
| 2026-05-05 08:41 | 56.03387 | -4.06369 | 3057 ft | 206 kts | 306° |
| 2026-05-05 08:41 | 56.03896 | -4.08725 | 2958 ft | 206 kts | 278° |
| 2026-05-05 08:41 | 56.03715 | -4.11270 | 2892 ft | 210 kts | 248° |
| 2026-05-05 08:42 | 56.02893 | -4.13461 | 2897 ft | 215 kts | 232° |
| 2026-05-05 08:42 | 56.01936 | -4.15519 | 2896 ft | 216 kts | 232° |
| 2026-05-05 08:42 | 56.00950 | -4.17546 | 2904 ft | 215 kts | 228° |
| 2026-05-05 08:42 | 55.99924 | -4.19495 | 2895 ft | 216 kts | 228° |
| 2026-05-05 08:43 | 55.98881 | -4.21406 | 2895 ft | 215 kts | 227° |
| 2026-05-05 08:43 | 55.97844 | -4.23325 | 2884 ft | 215 kts | 227° |
| 2026-05-05 08:43 | 55.96812 | -4.25263 | 2670 ft | 217 kts | 228° |
| 2026-05-05 08:43 | 55.95774 | -4.27218 | 2387 ft | 217 kts | 229° |
| 2026-05-05 08:44 | 55.94752 | -4.29141 | 2127 ft | 214 kts | 229° |
| 2026-05-05 08:44 | 55.93749 | -4.31026 | 1809 ft | 201 kts | 229° |
| 2026-05-05 08:44 | 55.92814 | -4.32783 | 1530 ft | 193 kts | 229° |
| 2026-05-05 08:44 | 55.91926 | -4.34449 | 1300 ft | 176 kts | 228° |
| 2026-05-05 08:45 | 55.91099 | -4.36003 | 1031 ft | 170 kts | 229° |
| 2026-05-05 08:45 | 55.90341 | -4.37422 | 797 ft | 152 kts | 231° |
| 2026-05-05 08:45 | 55.89624 | -4.38763 | 580 ft | 142 kts | 229° |
| 2026-05-05 08:45 | 55.88946 | -4.40031 | 393 ft | 139 kts | 230° |
| 2026-05-05 08:46 | 55.88295 | -4.41264 | 184 ft | 138 kts | 230° |
| 2026-05-05 08:46 | 55.87640 | -4.42503 | 38 ft | 135 kts | 228° |
| 2026-05-05 08:46 | 55.87097 | -4.43517 | 29 ft | 78 kts | 225° |
| 2026-05-05 08:46 | 55.86889 | -4.43901 | 29 ft | 30 kts | 226° |
| 2026-05-05 08:47 | 55.86750 | -4.44159 | 29 ft | 27 kts | 226° |
| 2026-05-05 08:47 | 55.86672 | -4.44280 | 29 ft | 9 kts | 193° |
| 2026-05-05 08:47 | 55.86621 | -4.44211 | 29 ft | 11 kts | 107° |
| 2026-05-05 08:47 | 55.86619 | -4.44060 | 29 ft | 11 kts | 89° |
| 2026-05-05 08:48 | 55.86628 | -4.43955 | 29 ft | 10 kts | 60° |
| 2026-05-05 08:48 | 55.86679 | -4.43857 | 29 ft | 12 kts | 46° |
| 2026-05-05 08:48 | 55.86734 | -4.43724 | 29 ft | 15 kts | 70° |
| 2026-05-05 08:48 | 55.86753 | -4.43615 | 29 ft | 8 kts | 76° |
| 2026-05-05 08:49 | 55.86739 | -4.43578 | 29 ft | 4 kts | 128° |
| 2026-05-05 08:49 | 55.86723 | -4.43543 | 29 ft | 3 kts | 129° |
| 2026-05-05 08:49 | 55.86712 | -4.43519 | 29 ft | 2 kts | 128° |
| 2026-05-05 08:49 | 55.86703 | -4.43498 | 29 ft | 1 kts | 128° |
| 2026-05-05 08:50 | 55.86697 | -4.43485 | 29 ft | 1 kts | 128° |
| 2026-05-05 08:50 | 55.86695 | -4.43480 | 29 ft | 0 kts | 128° |